sensor_id;sensor_type;location;lat;lon;timestamp;temperature;humidity
810;DHT22;387;48.772;9.186;2023-03-18T00:01:59;13.40;55.40
810;DHT22;387;48.772;9.186;2023-03-18T00:04:25;13.30;55.20
810;DHT22;387;48.772;9.186;2023-03-18T00:06:50;13.30;54.80
810;DHT22;387;48.772;9.186;2023-03-18T00:09:16;13.40;54.80
810;DHT22;387;48.772;9.186;2023-03-18T00:11:42;13.40;54.60
810;DHT22;387;48.772;9.186;2023-03-18T00:14:07;13.40;54.20
810;DHT22;387;48.772;9.186;2023-03-18T00:16:35;13.40;53.80
810;DHT22;387;48.772;9.186;2023-03-18T00:19:01;13.50;53.70
810;DHT22;387;48.772;9.186;2023-03-18T00:21:29;13.50;54.00
810;DHT22;387;48.772;9.186;2023-03-18T00:23:56;13.50;53.20
810;DHT22;387;48.772;9.186;2023-03-18T00:26:24;13.60;52.60
810;DHT22;387;48.772;9.186;2023-03-18T00:28:50;13.60;52.40
810;DHT22;387;48.772;9.186;2023-03-18T00:31:16;13.60;54.40
810;DHT22;387;48.772;9.186;2023-03-18T00:33:42;13.50;55.70
810;DHT22;387;48.772;9.186;2023-03-18T00:36:11;13.40;56.20
810;DHT22;387;48.772;9.186;2023-03-18T00:38:40;13.30;56.80
810;DHT22;387;48.772;9.186;2023-03-18T00:41:07;13.20;56.40
810;DHT22;387;48.772;9.186;2023-03-18T00:43:37;13.20;54.50
810;DHT22;387;48.772;9.186;2023-03-18T00:46:15;13.20;54.50
810;DHT22;387;48.772;9.186;2023-03-18T00:48:42;13.20;54.60
810;DHT22;387;48.772;9.186;2023-03-18T00:51:08;13.20;54.80
810;DHT22;387;48.772;9.186;2023-03-18T00:53:39;13.10;55.30
810;DHT22;387;48.772;9.186;2023-03-18T00:56:05;13.10;55.70
810;DHT22;387;48.772;9.186;2023-03-18T00:58:31;13.00;55.80
810;DHT22;387;48.772;9.186;2023-03-18T01:00:56;13.00;56.10
810;DHT22;387;48.772;9.186;2023-03-18T01:03:22;12.90;56.20
810;DHT22;387;48.772;9.186;2023-03-18T01:05:50;12.90;56.40
810;DHT22;387;48.772;9.186;2023-03-18T01:08:16;12.90;57.20
810;DHT22;387;48.772;9.186;2023-03-18T01:10:42;12.80;57.60
810;DHT22;387;48.772;9.186;2023-03-18T01:13:07;12.80;58.40
810;DHT22;387;48.772;9.186;2023-03-18T01:15:33;12.70;58.80
810;DHT22;387;48.772;9.186;2023-03-18T01:17:59;12.60;59.10
810;DHT22;387;48.772;9.186;2023-03-18T01:20:25;12.60;59.50
810;DHT22;387;48.772;9.186;2023-03-18T01:22:51;12.50;59.90
810;DHT22;387;48.772;9.186;2023-03-18T01:25:17;12.50;60.10
810;DHT22;387;48.772;9.186;2023-03-18T01:27:43;12.30;60.30
810;DHT22;387;48.772;9.186;2023-03-18T01:30:09;12.30;59.90
810;DHT22;387;48.772;9.186;2023-03-18T01:32:35;12.20;59.10
810;DHT22;387;48.772;9.186;2023-03-18T01:35:02;12.20;59.10
810;DHT22;387;48.772;9.186;2023-03-18T01:37:28;12.20;57.80
810;DHT22;387;48.772;9.186;2023-03-18T01:39:54;12.40;57.20
810;DHT22;387;48.772;9.186;2023-03-18T01:42:20;12.50;56.40
810;DHT22;387;48.772;9.186;2023-03-18T01:44:47;12.70;55.20
810;DHT22;387;48.772;9.186;2023-03-18T01:47:13;12.90;54.40
810;DHT22;387;48.772;9.186;2023-03-18T01:49:45;13.00;54.00
810;DHT22;387;48.772;9.186;2023-03-18T01:52:20;13.10;53.40
810;DHT22;387;48.772;9.186;2023-03-18T01:55:07;13.10;53.60
810;DHT22;387;48.772;9.186;2023-03-18T01:57:35;13.20;53.60
810;DHT22;387;48.772;9.186;2023-03-18T02:00:01;13.20;53.40
810;DHT22;387;48.772;9.186;2023-03-18T02:02:28;13.20;53.40
810;DHT22;387;48.772;9.186;2023-03-18T02:04:58;13.30;53.00
810;DHT22;387;48.772;9.186;2023-03-18T02:07:29;13.30;52.90
810;DHT22;387;48.772;9.186;2023-03-18T02:09:57;13.30;52.90
810;DHT22;387;48.772;9.186;2023-03-18T02:12:37;13.30;52.90
810;DHT22;387;48.772;9.186;2023-03-18T02:15:06;13.30;53.30
810;DHT22;387;48.772;9.186;2023-03-18T02:17:38;13.30;53.30
810;DHT22;387;48.772;9.186;2023-03-18T02:22:41;13.20;53.60
810;DHT22;387;48.772;9.186;2023-03-18T02:27:58;13.30;53.30
810;DHT22;387;48.772;9.186;2023-03-18T02:30:28;13.30;53.40
810;DHT22;387;48.772;9.186;2023-03-18T02:32:57;13.20;53.40
810;DHT22;387;48.772;9.186;2023-03-18T02:35:25;13.20;53.60
810;DHT22;387;48.772;9.186;2023-03-18T02:37:52;13.10;53.70
810;DHT22;387;48.772;9.186;2023-03-18T02:40:23;13.10;53.60
810;DHT22;387;48.772;9.186;2023-03-18T02:42:49;13.00;53.70
810;DHT22;387;48.772;9.186;2023-03-18T02:45:41;13.10;53.70
810;DHT22;387;48.772;9.186;2023-03-18T02:48:13;13.00;53.80
810;DHT22;387;48.772;9.186;2023-03-18T02:50:40;13.00;54.00
810;DHT22;387;48.772;9.186;2023-03-18T02:53:06;13.00;53.80
810;DHT22;387;48.772;9.186;2023-03-18T02:55:32;13.00;54.00
810;DHT22;387;48.772;9.186;2023-03-18T02:57:57;13.00;54.00
810;DHT22;387;48.772;9.186;2023-03-18T03:00:23;13.00;54.10
810;DHT22;387;48.772;9.186;2023-03-18T03:02:49;13.00;54.20
810;DHT22;387;48.772;9.186;2023-03-18T03:05:15;13.00;54.40
810;DHT22;387;48.772;9.186;2023-03-18T03:07:40;13.00;54.20
810;DHT22;387;48.772;9.186;2023-03-18T03:10:07;12.90;54.20
810;DHT22;387;48.772;9.186;2023-03-18T03:12:33;13.00;54.40
810;DHT22;387;48.772;9.186;2023-03-18T03:14:58;13.00;54.40
810;DHT22;387;48.772;9.186;2023-03-18T03:17:25;13.00;54.60
810;DHT22;387;48.772;9.186;2023-03-18T03:19:51;12.90;54.60
810;DHT22;387;48.772;9.186;2023-03-18T03:22:17;12.90;54.60
810;DHT22;387;48.772;9.186;2023-03-18T03:24:43;12.90;54.90
810;DHT22;387;48.772;9.186;2023-03-18T03:27:09;12.80;55.00
810;DHT22;387;48.772;9.186;2023-03-18T03:29:35;12.80;55.00
810;DHT22;387;48.772;9.186;2023-03-18T03:32:01;12.80;55.20
810;DHT22;387;48.772;9.186;2023-03-18T03:34:27;12.80;55.60
810;DHT22;387;48.772;9.186;2023-03-18T03:36:53;12.70;55.60
810;DHT22;387;48.772;9.186;2023-03-18T03:39:18;12.80;55.60
810;DHT22;387;48.772;9.186;2023-03-18T03:41:44;12.70;55.60
810;DHT22;387;48.772;9.186;2023-03-18T03:44:10;12.70;55.80
810;DHT22;387;48.772;9.186;2023-03-18T03:46:35;12.70;55.80
810;DHT22;387;48.772;9.186;2023-03-18T03:49:02;12.60;55.80
810;DHT22;387;48.772;9.186;2023-03-18T03:51:27;12.60;55.80
810;DHT22;387;48.772;9.186;2023-03-18T03:53:53;12.60;55.80
810;DHT22;387;48.772;9.186;2023-03-18T03:56:19;12.50;56.00
810;DHT22;387;48.772;9.186;2023-03-18T03:58:45;12.50;55.80
810;DHT22;387;48.772;9.186;2023-03-18T04:01:11;12.50;56.00
810;DHT22;387;48.772;9.186;2023-03-18T04:03:36;12.50;56.00
810;DHT22;387;48.772;9.186;2023-03-18T04:06:02;12.60;56.20
810;DHT22;387;48.772;9.186;2023-03-18T04:08:28;12.50;56.60
810;DHT22;387;48.772;9.186;2023-03-18T04:10:53;12.50;57.40
810;DHT22;387;48.772;9.186;2023-03-18T04:13:19;12.50;57.80
810;DHT22;387;48.772;9.186;2023-03-18T04:15:44;12.40;58.10
810;DHT22;387;48.772;9.186;2023-03-18T04:18:12;12.40;58.40
810;DHT22;387;48.772;9.186;2023-03-18T04:20:39;12.30;58.70
810;DHT22;387;48.772;9.186;2023-03-18T04:23:05;12.20;58.80
810;DHT22;387;48.772;9.186;2023-03-18T04:25:31;12.20;59.10
810;DHT22;387;48.772;9.186;2023-03-18T04:27:57;12.20;59.50
810;DHT22;387;48.772;9.186;2023-03-18T04:30:24;12.10;59.90
810;DHT22;387;48.772;9.186;2023-03-18T04:32:51;12.00;60.40
810;DHT22;387;48.772;9.186;2023-03-18T04:35:17;11.90;60.70
810;DHT22;387;48.772;9.186;2023-03-18T04:37:42;11.80;61.20
810;DHT22;387;48.772;9.186;2023-03-18T04:40:10;11.70;61.30
810;DHT22;387;48.772;9.186;2023-03-18T04:42:36;11.70;61.70
810;DHT22;387;48.772;9.186;2023-03-18T04:45:03;11.60;62.30
810;DHT22;387;48.772;9.186;2023-03-18T04:47:29;11.50;62.60
810;DHT22;387;48.772;9.186;2023-03-18T04:49:57;11.40;63.40
810;DHT22;387;48.772;9.186;2023-03-18T04:52:22;11.30;63.70
810;DHT22;387;48.772;9.186;2023-03-18T04:54:49;11.30;63.90
810;DHT22;387;48.772;9.186;2023-03-18T04:57:15;11.20;64.20
810;DHT22;387;48.772;9.186;2023-03-18T04:59:42;11.10;64.50
810;DHT22;387;48.772;9.186;2023-03-18T05:02:07;11.10;64.80
810;DHT22;387;48.772;9.186;2023-03-18T05:04:33;11.00;65.40
810;DHT22;387;48.772;9.186;2023-03-18T05:06:59;10.90;65.80
810;DHT22;387;48.772;9.186;2023-03-18T05:09:24;10.90;66.10
810;DHT22;387;48.772;9.186;2023-03-18T05:11:50;10.80;66.10
810;DHT22;387;48.772;9.186;2023-03-18T05:14:15;10.60;66.60
810;DHT22;387;48.772;9.186;2023-03-18T05:16:41;10.60;67.00
810;DHT22;387;48.772;9.186;2023-03-18T05:19:07;10.60;67.30
810;DHT22;387;48.772;9.186;2023-03-18T05:21:34;10.50;67.50
810;DHT22;387;48.772;9.186;2023-03-18T05:24:00;10.50;67.50
810;DHT22;387;48.772;9.186;2023-03-18T05:26:27;10.50;67.30
810;DHT22;387;48.772;9.186;2023-03-18T05:28:52;10.40;67.60
810;DHT22;387;48.772;9.186;2023-03-18T05:31:18;10.30;68.00
810;DHT22;387;48.772;9.186;2023-03-18T05:33:44;10.30;68.20
810;DHT22;387;48.772;9.186;2023-03-18T05:36:10;10.20;68.50
810;DHT22;387;48.772;9.186;2023-03-18T05:38:36;10.20;68.60
810;DHT22;387;48.772;9.186;2023-03-18T05:41:02;10.10;69.10
810;DHT22;387;48.772;9.186;2023-03-18T05:43:27;10.10;69.10
810;DHT22;387;48.772;9.186;2023-03-18T05:45:53;10.10;69.20
810;DHT22;387;48.772;9.186;2023-03-18T05:48:20;10.00;69.40
810;DHT22;387;48.772;9.186;2023-03-18T05:50:45;10.00;69.50
810;DHT22;387;48.772;9.186;2023-03-18T05:53:12;9.90;69.50
810;DHT22;387;48.772;9.186;2023-03-18T05:55:38;9.90;69.70
810;DHT22;387;48.772;9.186;2023-03-18T05:58:05;9.90;69.80
810;DHT22;387;48.772;9.186;2023-03-18T06:00:30;9.90;70.10
810;DHT22;387;48.772;9.186;2023-03-18T06:02:57;9.90;69.90
810;DHT22;387;48.772;9.186;2023-03-18T06:05:25;9.90;69.80
810;DHT22;387;48.772;9.186;2023-03-18T06:07:51;9.90;69.70
810;DHT22;387;48.772;9.186;2023-03-18T06:10:17;9.90;69.70
810;DHT22;387;48.772;9.186;2023-03-18T06:12:43;9.90;69.70
810;DHT22;387;48.772;9.186;2023-03-18T06:15:10;9.90;69.80
810;DHT22;387;48.772;9.186;2023-03-18T06:17:36;9.90;69.80
810;DHT22;387;48.772;9.186;2023-03-18T06:20:04;9.80;69.80
810;DHT22;387;48.772;9.186;2023-03-18T06:22:29;9.80;69.90
810;DHT22;387;48.772;9.186;2023-03-18T06:24:57;9.80;69.90
810;DHT22;387;48.772;9.186;2023-03-18T06:27:23;9.80;69.90
810;DHT22;387;48.772;9.186;2023-03-18T06:29:49;9.80;69.90
810;DHT22;387;48.772;9.186;2023-03-18T06:32:14;9.80;69.80
810;DHT22;387;48.772;9.186;2023-03-18T06:34:40;9.80;69.90
810;DHT22;387;48.772;9.186;2023-03-18T06:37:06;9.90;70.10
810;DHT22;387;48.772;9.186;2023-03-18T06:39:32;9.90;69.80
810;DHT22;387;48.772;9.186;2023-03-18T06:41:59;9.90;70.10
810;DHT22;387;48.772;9.186;2023-03-18T06:44:25;9.90;70.20
810;DHT22;387;48.772;9.186;2023-03-18T06:46:50;9.90;70.20
810;DHT22;387;48.772;9.186;2023-03-18T06:49:16;9.90;70.20
810;DHT22;387;48.772;9.186;2023-03-18T06:51:42;9.90;70.10
810;DHT22;387;48.772;9.186;2023-03-18T06:54:08;10.00;70.40
810;DHT22;387;48.772;9.186;2023-03-18T06:56:34;10.00;70.20
810;DHT22;387;48.772;9.186;2023-03-18T06:59:04;10.00;70.70
810;DHT22;387;48.772;9.186;2023-03-18T07:01:30;10.00;70.40
810;DHT22;387;48.772;9.186;2023-03-18T07:03:57;10.00;70.50
810;DHT22;387;48.772;9.186;2023-03-18T07:06:23;10.10;70.40
810;DHT22;387;48.772;9.186;2023-03-18T07:08:49;10.10;70.50
810;DHT22;387;48.772;9.186;2023-03-18T07:11:14;10.10;70.40
810;DHT22;387;48.772;9.186;2023-03-18T07:13:41;10.10;69.50
810;DHT22;387;48.772;9.186;2023-03-18T07:16:06;10.10;69.70
810;DHT22;387;48.772;9.186;2023-03-18T07:18:32;10.20;69.50
810;DHT22;387;48.772;9.186;2023-03-18T07:20:58;10.20;69.20
810;DHT22;387;48.772;9.186;2023-03-18T07:23:23;10.30;68.80
810;DHT22;387;48.772;9.186;2023-03-18T07:25:49;10.30;68.60
810;DHT22;387;48.772;9.186;2023-03-18T07:28:15;10.40;68.50
810;DHT22;387;48.772;9.186;2023-03-18T07:30:41;10.50;68.20
810;DHT22;387;48.772;9.186;2023-03-18T07:33:07;10.60;68.00
810;DHT22;387;48.772;9.186;2023-03-18T07:35:33;10.70;68.00
810;DHT22;387;48.772;9.186;2023-03-18T07:37:59;10.70;68.20
810;DHT22;387;48.772;9.186;2023-03-18T07:40:24;10.80;68.00
810;DHT22;387;48.772;9.186;2023-03-18T07:42:50;10.90;68.50
810;DHT22;387;48.772;9.186;2023-03-18T07:45:16;10.90;68.20
810;DHT22;387;48.772;9.186;2023-03-18T07:47:42;11.00;68.30
810;DHT22;387;48.772;9.186;2023-03-18T07:50:08;11.00;68.30
810;DHT22;387;48.772;9.186;2023-03-18T07:52:34;11.10;68.30
810;DHT22;387;48.772;9.186;2023-03-18T07:55:00;11.20;67.90
810;DHT22;387;48.772;9.186;2023-03-18T07:57:26;11.30;67.60
810;DHT22;387;48.772;9.186;2023-03-18T07:59:52;11.40;67.30
810;DHT22;387;48.772;9.186;2023-03-18T08:02:17;11.50;67.90
810;DHT22;387;48.772;9.186;2023-03-18T08:04:44;11.70;67.50
810;DHT22;387;48.772;9.186;2023-03-18T08:07:11;11.80;67.00
810;DHT22;387;48.772;9.186;2023-03-18T08:09:37;11.90;66.70
810;DHT22;387;48.772;9.186;2023-03-18T08:12:03;12.00;66.70
810;DHT22;387;48.772;9.186;2023-03-18T08:14:28;12.10;66.00
810;DHT22;387;48.772;9.186;2023-03-18T08:16:54;12.20;65.00
810;DHT22;387;48.772;9.186;2023-03-18T08:19:20;12.30;62.20
810;DHT22;387;48.772;9.186;2023-03-18T08:21:46;12.40;62.00
810;DHT22;387;48.772;9.186;2023-03-18T08:24:12;12.50;60.00
810;DHT22;387;48.772;9.186;2023-03-18T08:26:38;12.70;57.40
810;DHT22;387;48.772;9.186;2023-03-18T08:29:04;12.80;56.90
810;DHT22;387;48.772;9.186;2023-03-18T08:31:29;13.00;57.00
810;DHT22;387;48.772;9.186;2023-03-18T08:33:56;13.10;57.00
810;DHT22;387;48.772;9.186;2023-03-18T08:36:24;13.30;56.00
810;DHT22;387;48.772;9.186;2023-03-18T08:38:49;13.50;55.40
810;DHT22;387;48.772;9.186;2023-03-18T08:41:15;13.60;55.40
810;DHT22;387;48.772;9.186;2023-03-18T08:43:41;13.70;54.50
810;DHT22;387;48.772;9.186;2023-03-18T08:46:07;13.90;54.10
810;DHT22;387;48.772;9.186;2023-03-18T08:48:33;14.00;53.30
810;DHT22;387;48.772;9.186;2023-03-18T08:51:05;14.10;52.10
810;DHT22;387;48.772;9.186;2023-03-18T08:53:35;14.20;50.60
810;DHT22;387;48.772;9.186;2023-03-18T08:56:01;14.30;50.70
810;DHT22;387;48.772;9.186;2023-03-18T08:58:27;14.40;50.50
810;DHT22;387;48.772;9.186;2023-03-18T09:00:54;14.50;49.30
810;DHT22;387;48.772;9.186;2023-03-18T09:03:19;14.60;49.00
810;DHT22;387;48.772;9.186;2023-03-18T09:05:49;14.70;48.10
810;DHT22;387;48.772;9.186;2023-03-18T09:08:15;14.90;48.20
810;DHT22;387;48.772;9.186;2023-03-18T09:10:40;15.00;47.80
810;DHT22;387;48.772;9.186;2023-03-18T09:13:06;15.10;47.70
810;DHT22;387;48.772;9.186;2023-03-18T09:15:33;15.30;47.50
810;DHT22;387;48.772;9.186;2023-03-18T09:17:59;15.30;47.50
810;DHT22;387;48.772;9.186;2023-03-18T09:20:24;15.40;47.10
810;DHT22;387;48.772;9.186;2023-03-18T09:22:50;15.50;47.10
810;DHT22;387;48.772;9.186;2023-03-18T09:25:17;15.50;47.00
810;DHT22;387;48.772;9.186;2023-03-18T09:27:43;15.60;47.00
810;DHT22;387;48.772;9.186;2023-03-18T09:30:10;15.60;46.70
810;DHT22;387;48.772;9.186;2023-03-18T09:32:36;15.50;47.00
810;DHT22;387;48.772;9.186;2023-03-18T09:35:02;15.60;47.70
810;DHT22;387;48.772;9.186;2023-03-18T09:37:28;15.80;47.40
810;DHT22;387;48.772;9.186;2023-03-18T09:39:53;15.90;46.90
810;DHT22;387;48.772;9.186;2023-03-18T09:45:36;16.10;46.60
810;DHT22;387;48.772;9.186;2023-03-18T09:48:39;16.20;46.60
810;DHT22;387;48.772;9.186;2023-03-18T09:51:18;16.40;45.90
810;DHT22;387;48.772;9.186;2023-03-18T09:54:11;16.40;47.50
810;DHT22;387;48.772;9.186;2023-03-18T09:56:38;16.40;49.30
810;DHT22;387;48.772;9.186;2023-03-18T09:59:28;16.40;49.70
810;DHT22;387;48.772;9.186;2023-03-18T10:01:56;16.50;49.10
810;DHT22;387;48.772;9.186;2023-03-18T10:06:54;16.60;49.80
810;DHT22;387;48.772;9.186;2023-03-18T10:09:29;16.70;50.10
810;DHT22;387;48.772;9.186;2023-03-18T10:17:43;16.60;50.30
810;DHT22;387;48.772;9.186;2023-03-18T10:20:17;16.50;50.50
810;DHT22;387;48.772;9.186;2023-03-18T10:25:57;16.60;50.20
810;DHT22;387;48.772;9.186;2023-03-18T10:28:56;16.60;49.50
810;DHT22;387;48.772;9.186;2023-03-18T10:31:52;16.70;49.10
810;DHT22;387;48.772;9.186;2023-03-18T10:34:26;16.80;48.70
810;DHT22;387;48.772;9.186;2023-03-18T10:37:10;16.90;48.30
810;DHT22;387;48.772;9.186;2023-03-18T10:39:41;17.00;47.70
810;DHT22;387;48.772;9.186;2023-03-18T10:42:20;17.20;46.20
810;DHT22;387;48.772;9.186;2023-03-18T10:44:46;17.40;45.30
810;DHT22;387;48.772;9.186;2023-03-18T10:47:20;17.80;44.70
810;DHT22;387;48.772;9.186;2023-03-18T10:50:15;18.20;43.70
810;DHT22;387;48.772;9.186;2023-03-18T10:53:19;18.70;42.00
810;DHT22;387;48.772;9.186;2023-03-18T10:58:20;19.50;39.60
810;DHT22;387;48.772;9.186;2023-03-18T11:00:46;19.70;39.00
810;DHT22;387;48.772;9.186;2023-03-18T11:04:01;19.80;38.80
810;DHT22;387;48.772;9.186;2023-03-18T11:06:16;20.00;38.30
810;DHT22;387;48.772;9.186;2023-03-18T11:08:46;19.70;37.60
810;DHT22;387;48.772;9.186;2023-03-18T11:14:06;19.60;37.10
810;DHT22;387;48.772;9.186;2023-03-18T11:16:38;19.80;37.40
810;DHT22;387;48.772;9.186;2023-03-18T11:19:29;19.90;37.60
810;DHT22;387;48.772;9.186;2023-03-18T11:24:45;20.50;35.90
810;DHT22;387;48.772;9.186;2023-03-18T11:29:55;20.60;34.50
810;DHT22;387;48.772;9.186;2023-03-18T11:32:29;20.90;33.60
810;DHT22;387;48.772;9.186;2023-03-18T11:34:57;20.60;31.70
810;DHT22;387;48.772;9.186;2023-03-18T11:37:39;20.50;32.70
810;DHT22;387;48.772;9.186;2023-03-18T11:40:17;20.40;33.10
810;DHT22;387;48.772;9.186;2023-03-18T11:42:45;20.40;33.70
810;DHT22;387;48.772;9.186;2023-03-18T11:48:02;20.70;32.80
810;DHT22;387;48.772;9.186;2023-03-18T11:50:38;20.30;31.20
810;DHT22;387;48.772;9.186;2023-03-18T11:53:16;20.30;31.20
810;DHT22;387;48.772;9.186;2023-03-18T11:55:51;20.30;30.90
810;DHT22;387;48.772;9.186;2023-03-18T12:04:25;20.10;31.10
810;DHT22;387;48.772;9.186;2023-03-18T12:15:28;20.40;32.30
810;DHT22;387;48.772;9.186;2023-03-18T12:18:18;20.40;32.40
810;DHT22;387;48.772;9.186;2023-03-18T12:20:52;20.60;32.00
810;DHT22;387;48.772;9.186;2023-03-18T12:26:02;20.60;32.30
810;DHT22;387;48.772;9.186;2023-03-18T12:28:46;20.60;32.30
810;DHT22;387;48.772;9.186;2023-03-18T12:33:57;21.00;32.40
810;DHT22;387;48.772;9.186;2023-03-18T12:42:02;21.60;31.20
810;DHT22;387;48.772;9.186;2023-03-18T12:47:09;21.50;31.50
810;DHT22;387;48.772;9.186;2023-03-18T12:49:41;21.30;31.20
810;DHT22;387;48.772;9.186;2023-03-18T12:55:00;21.20;30.70
810;DHT22;387;48.772;9.186;2023-03-18T13:00:46;21.70;30.70
810;DHT22;387;48.772;9.186;2023-03-18T13:03:33;22.00;29.50
810;DHT22;387;48.772;9.186;2023-03-18T13:16:54;21.90;29.80
810;DHT22;387;48.772;9.186;2023-03-18T13:19:22;22.20;29.70
810;DHT22;387;48.772;9.186;2023-03-18T13:21:55;22.40;28.70
810;DHT22;387;48.772;9.186;2023-03-18T13:24:39;22.50;28.20
810;DHT22;387;48.772;9.186;2023-03-18T13:27:37;22.30;28.30
810;DHT22;387;48.772;9.186;2023-03-18T13:36:09;22.40;28.00
810;DHT22;387;48.772;9.186;2023-03-18T13:42:40;22.20;26.70
810;DHT22;387;48.772;9.186;2023-03-18T13:47:41;21.30;27.70
810;DHT22;387;48.772;9.186;2023-03-18T13:52:44;20.90;28.00
810;DHT22;387;48.772;9.186;2023-03-18T14:00:32;20.90;28.30
810;DHT22;387;48.772;9.186;2023-03-18T14:05:46;21.10;28.70
810;DHT22;387;48.772;9.186;2023-03-18T14:19:01;21.10;28.30
810;DHT22;387;48.772;9.186;2023-03-18T14:21:31;21.10;28.30
810;DHT22;387;48.772;9.186;2023-03-18T14:26:36;20.90;28.80
810;DHT22;387;48.772;9.186;2023-03-18T14:41:45;20.50;28.80
810;DHT22;387;48.772;9.186;2023-03-18T14:44:38;20.50;28.70
810;DHT22;387;48.772;9.186;2023-03-18T14:47:16;20.70;28.70
810;DHT22;387;48.772;9.186;2023-03-18T14:52:33;21.10;28.00
810;DHT22;387;48.772;9.186;2023-03-18T14:55:16;21.20;28.10
810;DHT22;387;48.772;9.186;2023-03-18T14:57:43;21.50;27.90
810;DHT22;387;48.772;9.186;2023-03-18T15:00:15;21.30;27.50
810;DHT22;387;48.772;9.186;2023-03-18T15:02:43;21.00;28.00
810;DHT22;387;48.772;9.186;2023-03-18T15:05:17;20.90;28.30
810;DHT22;387;48.772;9.186;2023-03-18T15:07:50;20.80;28.40
810;DHT22;387;48.772;9.186;2023-03-18T15:10:22;20.80;28.30
810;DHT22;387;48.772;9.186;2023-03-18T15:13:04;20.70;28.60
810;DHT22;387;48.772;9.186;2023-03-18T15:15:35;20.50;29.00
810;DHT22;387;48.772;9.186;2023-03-18T15:18:22;20.70;29.00
810;DHT22;387;48.772;9.186;2023-03-18T15:20:55;20.60;29.00
810;DHT22;387;48.772;9.186;2023-03-18T15:23:32;20.60;29.00
810;DHT22;387;48.772;9.186;2023-03-18T15:26:01;20.50;28.80
810;DHT22;387;48.772;9.186;2023-03-18T15:28:28;20.30;28.90
810;DHT22;387;48.772;9.186;2023-03-18T15:30:56;20.10;34.90
810;DHT22;387;48.772;9.186;2023-03-18T15:33:27;19.80;38.70
810;DHT22;387;48.772;9.186;2023-03-18T15:36:05;19.70;41.40
810;DHT22;387;48.772;9.186;2023-03-18T15:38:31;19.70;43.50
810;DHT22;387;48.772;9.186;2023-03-18T15:41:05;19.50;44.50
810;DHT22;387;48.772;9.186;2023-03-18T15:43:42;19.30;45.50
810;DHT22;387;48.772;9.186;2023-03-18T15:46:29;19.50;45.00
810;DHT22;387;48.772;9.186;2023-03-18T15:48:56;19.70;44.50
810;DHT22;387;48.772;9.186;2023-03-18T15:51:34;20.00;43.90
810;DHT22;387;48.772;9.186;2023-03-18T15:54:29;20.00;43.80
810;DHT22;387;48.772;9.186;2023-03-18T15:56:58;19.60;44.30
810;DHT22;387;48.772;9.186;2023-03-18T15:59:31;19.30;45.40
810;DHT22;387;48.772;9.186;2023-03-18T16:01:58;19.30;45.50
810;DHT22;387;48.772;9.186;2023-03-18T16:04:28;19.40;45.70
810;DHT22;387;48.772;9.186;2023-03-18T16:06:54;19.20;45.70
810;DHT22;387;48.772;9.186;2023-03-18T16:09:21;19.00;46.20
810;DHT22;387;48.772;9.186;2023-03-18T16:11:53;18.80;46.70
810;DHT22;387;48.772;9.186;2023-03-18T16:14:27;18.70;46.70
810;DHT22;387;48.772;9.186;2023-03-18T16:16:55;18.50;47.40
810;DHT22;387;48.772;9.186;2023-03-18T16:19:23;18.40;47.80
810;DHT22;387;48.772;9.186;2023-03-18T16:21:50;18.40;48.10
810;DHT22;387;48.772;9.186;2023-03-18T16:24:16;18.50;48.10
810;DHT22;387;48.772;9.186;2023-03-18T16:26:42;18.60;47.90
810;DHT22;387;48.772;9.186;2023-03-18T16:29:16;18.60;48.10
810;DHT22;387;48.772;9.186;2023-03-18T16:31:43;18.50;48.10
810;DHT22;387;48.772;9.186;2023-03-18T16:34:17;18.50;48.20
810;DHT22;387;48.772;9.186;2023-03-18T16:36:44;18.40;48.60
810;DHT22;387;48.772;9.186;2023-03-18T16:39:14;18.40;48.70
810;DHT22;387;48.772;9.186;2023-03-18T16:41:41;18.40;48.50
810;DHT22;387;48.772;9.186;2023-03-18T16:44:13;18.20;49.00
810;DHT22;387;48.772;9.186;2023-03-18T16:46:40;18.00;49.80
810;DHT22;387;48.772;9.186;2023-03-18T16:49:20;18.00;50.30
810;DHT22;387;48.772;9.186;2023-03-18T16:51:46;18.00;50.70
810;DHT22;387;48.772;9.186;2023-03-18T16:54:23;17.80;50.70
810;DHT22;387;48.772;9.186;2023-03-18T16:56:53;17.50;51.20
810;DHT22;387;48.772;9.186;2023-03-18T16:59:19;17.50;51.40
810;DHT22;387;48.772;9.186;2023-03-18T17:01:45;17.50;51.40
810;DHT22;387;48.772;9.186;2023-03-18T17:04:29;17.30;50.90
810;DHT22;387;48.772;9.186;2023-03-18T17:06:57;17.30;51.40
810;DHT22;387;48.772;9.186;2023-03-18T17:09:23;17.30;51.30
810;DHT22;387;48.772;9.186;2023-03-18T17:11:50;17.10;51.20
810;DHT22;387;48.772;9.186;2023-03-18T17:14:37;17.10;51.40
810;DHT22;387;48.772;9.186;2023-03-18T17:19:54;17.00;51.80
810;DHT22;387;48.772;9.186;2023-03-18T17:22:26;17.00;52.00
810;DHT22;387;48.772;9.186;2023-03-18T17:24:52;16.70;52.50
810;DHT22;387;48.772;9.186;2023-03-18T17:32:40;16.70;53.20
810;DHT22;387;48.772;9.186;2023-03-18T17:35:16;16.60;53.20
810;DHT22;387;48.772;9.186;2023-03-18T17:37:43;16.60;53.30
810;DHT22;387;48.772;9.186;2023-03-18T17:40:11;16.70;53.30
810;DHT22;387;48.772;9.186;2023-03-18T17:42:38;16.70;53.80
810;DHT22;387;48.772;9.186;2023-03-18T17:45:29;16.60;53.60
810;DHT22;387;48.772;9.186;2023-03-18T17:48:15;16.60;53.80
810;DHT22;387;48.772;9.186;2023-03-18T17:50:42;16.60;54.10
810;DHT22;387;48.772;9.186;2023-03-18T17:55:46;16.50;54.50
810;DHT22;387;48.772;9.186;2023-03-18T17:58:15;16.40;54.50
810;DHT22;387;48.772;9.186;2023-03-18T18:00:42;16.40;54.50
810;DHT22;387;48.772;9.186;2023-03-18T18:03:22;16.40;54.50
810;DHT22;387;48.772;9.186;2023-03-18T18:05:50;16.30;54.50
810;DHT22;387;48.772;9.186;2023-03-18T18:08:17;16.30;54.60
810;DHT22;387;48.772;9.186;2023-03-18T18:10:47;16.20;54.90
810;DHT22;387;48.772;9.186;2023-03-18T18:13:18;16.20;55.20
810;DHT22;387;48.772;9.186;2023-03-18T18:15:45;16.20;55.00
810;DHT22;387;48.772;9.186;2023-03-18T18:20:42;16.10;56.60
810;DHT22;387;48.772;9.186;2023-03-18T18:23:13;16.10;56.90
810;DHT22;387;48.772;9.186;2023-03-18T18:25:43;16.00;57.00
810;DHT22;387;48.772;9.186;2023-03-18T18:28:18;16.00;57.40
810;DHT22;387;48.772;9.186;2023-03-18T18:30:44;15.90;57.60
810;DHT22;387;48.772;9.186;2023-03-18T18:33:09;15.90;57.80
810;DHT22;387;48.772;9.186;2023-03-18T18:35:35;15.70;58.10
810;DHT22;387;48.772;9.186;2023-03-18T18:38:01;15.70;58.70
810;DHT22;387;48.772;9.186;2023-03-18T18:40:27;15.60;58.90
810;DHT22;387;48.772;9.186;2023-03-18T18:42:53;15.60;58.90
810;DHT22;387;48.772;9.186;2023-03-18T18:45:18;15.50;59.10
810;DHT22;387;48.772;9.186;2023-03-18T18:47:45;15.40;59.10
810;DHT22;387;48.772;9.186;2023-03-18T18:50:16;15.30;59.50
810;DHT22;387;48.772;9.186;2023-03-18T18:52:42;15.30;59.70
810;DHT22;387;48.772;9.186;2023-03-18T18:55:08;15.20;59.70
810;DHT22;387;48.772;9.186;2023-03-18T18:57:37;15.10;60.10
810;DHT22;387;48.772;9.186;2023-03-18T19:00:13;15.10;60.40
810;DHT22;387;48.772;9.186;2023-03-18T19:02:42;15.00;60.30
810;DHT22;387;48.772;9.186;2023-03-18T19:05:08;14.90;61.00
810;DHT22;387;48.772;9.186;2023-03-18T19:07:36;14.80;61.30
810;DHT22;387;48.772;9.186;2023-03-18T19:10:02;14.70;61.50
810;DHT22;387;48.772;9.186;2023-03-18T19:12:28;14.70;61.50
810;DHT22;387;48.772;9.186;2023-03-18T19:14:54;14.60;61.70